createdAt,value
2022-10-29T00:01:17.749Z,1.63
2022-10-29T00:03:44.950Z,1.70
2022-10-29T00:06:18.945Z,1.85
2022-10-29T00:08:51.703Z,1.70
2022-10-29T00:11:26.557Z,1.65
2022-10-29T00:13:56.383Z,1.50
2022-10-29T00:16:27.063Z,1.83
2022-10-29T00:19:02.053Z,1.83
2022-10-29T00:21:39.845Z,1.40
2022-10-29T00:24:10.791Z,1.48
2022-10-29T00:26:38.203Z,2.00
2022-10-29T00:29:08.161Z,1.92
2022-10-29T00:31:35.354Z,1.73
2022-10-29T00:34:10.312Z,1.85
2022-10-29T00:36:37.911Z,1.70
2022-10-29T00:39:05.223Z,1.30
2022-10-29T00:41:35.105Z,1.83
2022-10-29T00:44:22.970Z,1.95
2022-10-29T00:46:59.149Z,2.28
2022-10-29T00:49:27.606Z,1.42
2022-10-29T00:51:55.632Z,1.60
2022-10-29T00:54:28.971Z,1.48
2022-10-29T00:57:14.552Z,2.55
2022-10-29T00:59:43.945Z,1.73
2022-10-29T01:02:11.615Z,1.60
2022-10-29T01:04:42.897Z,1.75
2022-10-29T01:07:12.924Z,1.73
2022-10-29T01:09:43.783Z,1.33
2022-10-29T01:12:38.140Z,1.40
2022-10-29T01:15:29.632Z,1.30
2022-10-29T01:18:21.184Z,1.45
2022-10-29T01:21:18.768Z,1.75
2022-10-29T01:24:29.000Z,1.20
2022-10-29T01:27:05.162Z,1.67
2022-10-29T01:30:09.586Z,1.50
2022-10-29T01:32:39.411Z,1.40
2022-10-29T01:35:19.121Z,1.30
2022-10-29T01:38:04.999Z,1.50
2022-10-29T01:40:42.902Z,1.13
2022-10-29T01:43:25.734Z,1.38
2022-10-29T01:46:20.620Z,1.30
2022-10-29T01:48:52.013Z,1.33
2022-10-29T01:51:23.455Z,1.33
2022-10-29T01:53:52.108Z,1.35
2022-10-29T01:56:19.357Z,1.05
2022-10-29T01:58:56.372Z,1.35
2022-10-29T02:01:41.718Z,1.20
2022-10-29T02:04:33.310Z,1.02
2022-10-29T02:07:18.959Z,0.80
2022-10-29T02:10:19.202Z,0.95
2022-10-29T02:12:54.630Z,1.25
2022-10-29T02:15:38.027Z,1.23
2022-10-29T02:18:10.687Z,1.52
2022-10-29T02:20:43.045Z,1.27
2022-10-29T02:23:10.675Z,1.10
2022-10-29T02:25:37.877Z,1.17
2022-10-29T02:28:07.361Z,1.10
2022-10-29T02:30:37.024Z,1.23
2022-10-29T02:33:04.556Z,1.30
2022-10-29T02:35:34.163Z,1.50
2022-10-29T02:38:04.665Z,1.27
2022-10-29T02:40:31.932Z,1.35
2022-10-29T02:43:02.195Z,1.23
2022-10-29T02:45:32.056Z,1.13
2022-10-29T02:47:59.564Z,1.40
2022-10-29T02:50:26.916Z,1.10
2022-10-29T02:52:54.279Z,0.90
2022-10-29T02:55:23.855Z,1.38
2022-10-29T02:57:51.074Z,1.13
2022-10-29T03:00:18.907Z,1.73
2022-10-29T03:02:46.217Z,1.77
2022-10-29T03:05:13.713Z,1.73
2022-10-29T03:07:40.898Z,1.83
2022-10-29T03:10:11.021Z,2.15
2022-10-29T03:12:38.311Z,1.65
2022-10-29T03:15:07.280Z,1.67
2022-10-29T03:17:34.527Z,1.40
2022-10-29T03:20:01.663Z,2.47
2022-10-29T03:22:28.921Z,2.08
2022-10-29T03:24:58.741Z,1.80
2022-10-29T03:27:25.984Z,1.95
2022-10-29T03:29:53.238Z,2.30
2022-10-29T03:32:20.491Z,2.72
2022-10-29T03:34:57.443Z,2.67
2022-10-29T03:37:27.047Z,1.80
2022-10-29T03:39:56.394Z,2.20
2022-10-29T03:42:23.951Z,1.83
2022-10-29T03:44:53.652Z,1.63
2022-10-29T03:47:20.786Z,2.30
2022-10-29T03:49:47.947Z,2.25
2022-10-29T03:52:15.062Z,1.77
2022-10-29T03:54:42.566Z,2.58
2022-10-29T03:57:09.731Z,3.08
2022-10-29T03:59:39.970Z,2.30
2022-10-29T04:02:14.609Z,2.47
2022-10-29T04:04:44.096Z,2.25
2022-10-29T04:07:12.532Z,2.10
2022-10-29T04:09:39.898Z,2.78
2022-10-29T04:12:08.782Z,2.58
2022-10-29T04:14:38.101Z,2.00
2022-10-29T04:17:11.768Z,2.42
2022-10-29T04:19:39.074Z,2.45
2022-10-29T04:30:30.263Z,2.63
2022-10-29T04:32:59.580Z,3.10
2022-10-29T04:35:28.585Z,2.90
2022-10-29T04:37:55.929Z,3.35
2022-10-29T04:40:26.055Z,3.28
2022-10-29T04:42:53.363Z,2.75
2022-10-29T04:45:20.693Z,3.53
2022-10-29T04:47:47.793Z,2.85
2022-10-29T04:50:14.969Z,2.88
2022-10-29T04:52:43.170Z,2.78
2022-10-29T04:55:13.225Z,2.92
2022-10-29T04:57:40.367Z,3.15
2022-10-29T05:00:07.961Z,2.00
2022-10-29T05:02:36.511Z,2.30
2022-10-29T05:05:03.690Z,2.28
2022-10-29T05:07:30.837Z,2.30
2022-10-29T05:09:58.000Z,1.92
2022-10-29T05:12:25.106Z,2.47
2022-10-29T05:14:52.312Z,2.13
2022-10-29T05:17:19.403Z,2.33
2022-10-29T05:19:46.556Z,2.20
2022-10-29T05:22:13.710Z,2.67
2022-10-29T05:24:40.789Z,2.22
2022-10-29T05:27:08.351Z,2.17
2022-10-29T05:29:35.456Z,2.80
2022-10-29T05:32:04.983Z,2.67
2022-10-29T05:34:35.285Z,2.88
2022-10-29T05:37:05.511Z,2.63
2022-10-29T05:39:34.912Z,2.45
2022-10-29T05:42:02.003Z,2.45
2022-10-29T05:44:29.250Z,2.08
2022-10-29T05:46:56.491Z,2.65
2022-10-29T05:49:23.658Z,2.00
2022-10-29T05:51:54.040Z,2.50
2022-10-29T05:54:21.537Z,2.97
2022-10-29T05:56:49.156Z,2.50
2022-10-29T05:59:16.359Z,2.38
2022-10-29T06:01:44.838Z,2.38
2022-10-29T06:04:12.054Z,2.15
2022-10-29T06:06:39.286Z,2.17
2022-10-29T06:09:08.043Z,2.22
2022-10-29T06:11:35.037Z,2.20
2022-10-29T06:14:02.381Z,2.20
2022-10-29T06:16:29.479Z,2.15
2022-10-29T06:18:56.639Z,2.72
2022-10-29T06:21:23.869Z,2.05
2022-10-29T06:23:54.111Z,2.10
2022-10-29T06:26:23.772Z,2.35
2022-10-29T06:28:51.155Z,2.17
2022-10-29T06:31:18.258Z,2.30
2022-10-29T06:33:48.482Z,2.35
2022-10-29T06:36:15.556Z,2.13
2022-10-29T06:38:42.654Z,2.72
2022-10-29T06:41:16.605Z,2.40
2022-10-29T06:43:43.746Z,2.35
2022-10-29T06:46:10.811Z,2.33
2022-10-29T06:48:38.160Z,2.08
2022-10-29T06:51:05.398Z,2.28
2022-10-29T06:53:32.620Z,2.40
2022-10-29T06:56:00.173Z,2.90
2022-10-29T06:58:27.407Z,2.58
2022-10-29T07:00:54.918Z,3.28
2022-10-29T07:03:24.565Z,2.33
2022-10-29T07:05:59.263Z,3.00
2022-10-29T07:10:54.805Z,2.65
2022-10-29T07:13:24.560Z,3.25
2022-10-29T07:15:51.719Z,3.67
2022-10-29T07:18:19.112Z,3.05
2022-10-29T07:20:49.422Z,3.40
2022-10-29T07:23:17.160Z,3.97
2022-10-29T07:28:51.288Z,4.78
2022-10-29T07:31:18.488Z,3.70
2022-10-29T07:33:45.898Z,4.60
2022-10-29T07:36:25.941Z,4.45
2022-10-29T07:39:10.410Z,4.32
2022-10-29T07:41:59.306Z,4.55
2022-10-29T07:44:38.140Z,5.05
2022-10-29T07:47:15.921Z,4.63
2022-10-29T07:49:57.259Z,5.30
2022-10-29T07:52:30.256Z,4.45
2022-10-29T07:55:06.562Z,4.68
2022-10-29T07:57:33.924Z,5.32
2022-10-29T08:04:42.278Z,3.58
2022-10-29T08:10:50.122Z,4.15
2022-10-29T08:13:27.796Z,4.53
2022-10-29T08:15:58.278Z,4.50
2022-10-29T08:23:38.277Z,4.50
2022-10-29T08:33:44.098Z,4.10
2022-10-29T08:36:15.063Z,5.28
2022-10-29T08:38:42.394Z,5.13
2022-10-29T08:41:33.757Z,5.18
2022-10-29T08:44:14.614Z,4.80
2022-10-29T08:47:13.661Z,5.13
2022-10-29T08:49:51.860Z,5.57
2022-10-29T08:52:29.221Z,5.32
2022-10-29T08:55:23.847Z,5.45
2022-10-29T08:58:08.340Z,5.60
2022-10-29T09:00:42.228Z,4.68
2022-10-29T09:03:13.004Z,4.95
2022-10-29T09:06:06.474Z,5.18
2022-10-29T09:08:45.087Z,5.30
2022-10-29T09:11:50.886Z,5.03
2022-10-29T09:15:03.855Z,5.32
2022-10-29T09:17:55.965Z,4.97
2022-10-29T09:20:37.065Z,4.72
2022-10-29T09:23:44.154Z,4.30
2022-10-29T09:26:20.417Z,4.78
2022-10-29T09:29:00.805Z,4.40
2022-10-29T09:31:45.125Z,4.63
2022-10-29T09:34:26.006Z,5.22
2022-10-29T09:36:56.429Z,4.22
2022-10-29T09:39:38.736Z,5.32
2022-10-29T09:42:17.175Z,5.18
2022-10-29T09:45:02.625Z,4.30
2022-10-29T09:47:52.593Z,4.45
2022-10-29T09:50:44.073Z,4.75
2022-10-29T09:53:13.987Z,4.07
2022-10-29T09:58:26.963Z,4.43
2022-10-29T10:01:04.675Z,4.47
2022-10-29T10:06:31.850Z,4.43
2022-10-29T10:09:08.750Z,4.30
2022-10-29T10:12:00.062Z,4.20
2022-10-29T10:14:28.022Z,4.70
2022-10-29T10:17:04.010Z,5.25
2022-10-29T10:19:38.952Z,5.15
2022-10-29T10:22:16.555Z,4.35
2022-10-29T10:24:44.077Z,4.85
2022-10-29T10:27:29.558Z,4.28
2022-10-29T10:30:15.994Z,4.40
2022-10-29T10:32:46.149Z,4.35
2022-10-29T10:35:33.700Z,4.38
2022-10-29T10:38:15.091Z,4.28
2022-10-29T10:40:54.309Z,4.97
2022-10-29T10:43:24.753Z,3.78
2022-10-29T10:45:58.953Z,4.00
2022-10-29T10:51:25.206Z,3.72
2022-10-29T10:56:58.701Z,4.00
2022-10-29T10:59:47.264Z,4.15
2022-10-29T11:02:22.090Z,3.42
2022-10-29T11:05:06.828Z,3.30
2022-10-29T11:07:41.781Z,3.45
2022-10-29T11:10:23.319Z,3.80
2022-10-29T11:12:57.725Z,3.40
2022-10-29T11:15:41.994Z,3.43
2022-10-29T11:18:21.637Z,3.20
2022-10-29T11:21:11.000Z,3.47
2022-10-29T11:24:08.116Z,3.67
2022-10-29T11:26:50.105Z,3.33
2022-10-29T11:32:13.902Z,3.10
2022-10-29T11:34:45.671Z,3.15
2022-10-29T11:40:24.476Z,3.17
2022-10-29T11:42:54.814Z,3.42
2022-10-29T11:45:43.247Z,3.40
2022-10-29T11:51:09.398Z,3.10
2022-10-29T11:54:05.144Z,3.13
2022-10-29T11:56:41.501Z,3.00
2022-10-29T11:59:33.369Z,3.15
2022-10-29T12:02:03.610Z,3.13
2022-10-29T12:04:44.089Z,3.50
2022-10-29T12:08:11.415Z,2.40
2022-10-29T12:11:04.776Z,2.45
2022-10-29T12:14:00.508Z,3.13
2022-10-29T12:17:20.106Z,2.90
2022-10-29T12:20:11.227Z,2.38
2022-10-29T12:23:05.242Z,2.40
2022-10-29T12:26:21.509Z,2.50
2022-10-29T12:28:58.533Z,2.38
2022-10-29T12:31:43.798Z,2.20
2022-10-29T12:34:39.867Z,1.92
2022-10-29T12:41:54.372Z,2.20
2022-10-29T12:44:23.872Z,1.63
2022-10-29T12:47:12.613Z,2.15
2022-10-29T12:49:43.075Z,1.88
2022-10-29T12:52:54.002Z,2.08
2022-10-29T12:55:57.140Z,1.98
2022-10-29T12:58:45.152Z,2.67
2022-10-29T13:05:23.429Z,1.98
2022-10-29T13:08:05.105Z,1.95
2022-10-29T13:10:41.546Z,1.88
2022-10-29T13:13:17.993Z,1.98
2022-10-29T13:16:02.490Z,1.67
2022-10-29T13:19:00.433Z,1.70
2022-10-29T13:21:57.252Z,1.33
2022-10-29T13:24:25.802Z,1.13
2022-10-29T13:30:14.554Z,1.77
2022-10-29T13:32:44.009Z,1.90
2022-10-29T13:35:20.561Z,1.98
2022-10-29T13:37:50.288Z,1.27
2022-10-29T13:40:23.720Z,2.28
2022-10-29T13:43:03.155Z,1.52
2022-10-29T13:45:35.338Z,1.52
2022-10-29T13:50:36.913Z,1.45
2022-10-29T13:55:55.460Z,1.40
2022-10-29T13:58:36.478Z,1.83
2022-10-29T14:01:11.896Z,1.60
2022-10-29T14:04:14.011Z,1.60
2022-10-29T14:06:42.085Z,1.90
2022-10-29T14:09:28.967Z,1.88
2022-10-29T14:12:06.341Z,1.60
2022-10-29T14:14:43.784Z,1.80
2022-10-29T14:17:20.155Z,1.25
2022-10-29T14:20:03.270Z,1.30
2022-10-29T14:22:35.784Z,1.23
2022-10-29T14:25:32.999Z,1.70
2022-10-29T14:28:10.445Z,1.27
2022-10-29T14:30:37.401Z,1.45
2022-10-29T14:33:24.908Z,1.83
2022-10-29T14:35:56.245Z,1.48
2022-10-29T14:38:31.622Z,1.38
2022-10-29T14:40:58.772Z,1.52
2022-10-29T14:43:28.670Z,1.17
2022-10-29T14:46:29.651Z,1.33
2022-10-29T14:49:03.017Z,1.50
2022-10-29T14:51:49.693Z,1.20
2022-10-29T14:54:28.034Z,1.35
2022-10-29T14:57:00.705Z,0.95
2022-10-29T14:59:30.155Z,1.15
2022-10-29T15:02:17.137Z,1.27
2022-10-29T15:05:22.920Z,1.75
2022-10-29T15:07:50.545Z,1.55
2022-10-29T15:10:23.056Z,1.77
2022-10-29T15:12:55.758Z,1.90
2022-10-29T15:15:29.406Z,1.58
2022-10-29T15:18:14.881Z,1.48
2022-10-29T15:20:41.857Z,1.80
2022-10-29T15:23:34.156Z,1.67
2022-10-29T15:26:05.338Z,1.30
2022-10-29T15:28:38.908Z,1.02
2022-10-29T15:31:06.496Z,1.63
2022-10-29T15:33:37.191Z,1.50
2022-10-29T15:36:05.551Z,1.85
2022-10-29T15:38:35.132Z,1.95
2022-10-29T15:41:08.269Z,1.60
2022-10-29T15:43:48.353Z,1.77
2022-10-29T15:46:29.774Z,1.80
2022-10-29T15:48:57.017Z,1.90
2022-10-29T15:51:30.444Z,1.95
2022-10-29T15:54:02.311Z,1.80
2022-10-29T15:56:31.850Z,1.77
2022-10-29T15:59:00.577Z,2.22
2022-10-29T16:04:34.122Z,2.47
2022-10-29T16:07:01.364Z,2.45
2022-10-29T16:09:29.495Z,2.05
2022-10-29T16:14:37.351Z,2.45
2022-10-29T16:17:10.288Z,2.42
2022-10-29T16:19:37.228Z,2.70
2022-10-29T16:22:04.261Z,2.53
2022-10-29T16:24:31.378Z,2.75
2022-10-29T16:26:58.500Z,2.55
2022-10-29T16:29:25.603Z,3.10
2022-10-29T16:31:52.649Z,4.00
2022-10-29T16:34:23.739Z,3.67
2022-10-29T16:36:51.736Z,3.38
2022-10-29T16:39:18.675Z,3.15
2022-10-29T16:41:45.785Z,3.05
2022-10-29T16:44:13.819Z,2.97
2022-10-29T16:46:43.766Z,2.42
2022-10-29T16:49:10.755Z,2.53
2022-10-29T16:51:38.240Z,3.17
2022-10-29T16:54:05.187Z,2.75
2022-10-29T16:56:32.059Z,3.45
2022-10-29T16:59:01.847Z,3.20
2022-10-29T17:01:29.124Z,3.10
2022-10-29T17:03:56.240Z,2.85
2022-10-29T17:06:23.200Z,3.47
2022-10-29T17:08:50.171Z,2.70
2022-10-29T17:11:17.320Z,2.22
2022-10-29T17:13:44.811Z,2.38
2022-10-29T17:16:16.590Z,3.58
2022-10-29T17:18:43.819Z,2.67
2022-10-29T17:21:59.328Z,3.17
2022-10-29T17:24:27.266Z,2.72
2022-10-29T17:26:54.615Z,3.03
2022-10-29T17:29:24.310Z,3.13
2022-10-29T17:31:51.620Z,3.20
2022-10-29T17:38:23.381Z,2.80
2022-10-29T17:40:50.443Z,2.80
2022-10-29T17:43:17.661Z,2.95
2022-10-29T17:45:47.115Z,3.05
2022-10-29T17:48:14.260Z,2.42
2022-10-29T17:50:41.281Z,2.90
2022-10-29T17:53:10.815Z,2.83
2022-10-29T17:55:37.859Z,2.78
2022-10-29T17:58:18.146Z,2.85
2022-10-29T18:00:55.073Z,2.60
2022-10-29T18:03:29.480Z,2.75
2022-10-29T18:06:01.392Z,2.70
2022-10-29T18:08:31.907Z,3.03
2022-10-29T18:11:08.343Z,2.92
2022-10-29T18:14:53.417Z,2.60
2022-10-29T18:17:43.757Z,3.38
2022-10-29T18:20:11.422Z,2.83
2022-10-29T18:22:41.592Z,2.88
2022-10-29T18:25:13.061Z,3.13
2022-10-29T18:27:41.124Z,2.83
2022-10-29T18:33:12.776Z,3.58
2022-10-29T18:35:39.826Z,3.22
2022-10-29T18:38:12.242Z,3.50
2022-10-29T18:40:42.358Z,3.38
2022-10-29T18:43:09.519Z,3.33
2022-10-29T18:45:36.843Z,3.38
2022-10-29T18:48:06.849Z,3.00
2022-10-29T18:50:46.755Z,2.97
2022-10-29T18:53:15.379Z,3.50
2022-10-29T18:55:53.310Z,2.70
2022-10-29T18:58:29.539Z,3.08
2022-10-29T19:01:05.262Z,2.70
2022-10-29T19:03:41.220Z,3.03
2022-10-29T19:06:12.412Z,2.83
2022-10-29T19:08:45.008Z,2.40
2022-10-29T19:15:33.001Z,2.80
2022-10-29T19:18:00.601Z,2.60
2022-10-29T19:20:54.479Z,2.55
2022-10-29T19:31:49.725Z,3.10
2022-10-29T19:34:32.634Z,2.97
2022-10-29T19:37:05.796Z,2.45
2022-10-29T19:39:33.560Z,3.50
2022-10-29T19:42:14.432Z,3.45
2022-10-29T19:49:08.411Z,2.47
2022-10-29T19:51:38.434Z,2.70
2022-10-29T19:54:09.217Z,2.83
2022-10-29T19:56:39.195Z,2.85
2022-10-29T19:59:38.271Z,3.05
2022-10-29T20:02:19.061Z,3.20
2022-10-29T20:04:48.522Z,2.22
2022-10-29T20:07:15.802Z,2.35
2022-10-29T20:09:42.876Z,2.17
2022-10-29T20:12:09.950Z,2.58
2022-10-29T20:15:00.550Z,2.58
2022-10-29T20:18:19.168Z,2.58
2022-10-29T20:20:59.727Z,2.65
2022-10-29T20:23:48.760Z,2.58
2022-10-29T20:26:15.750Z,2.60
2022-10-29T20:28:42.895Z,2.50
2022-10-29T20:31:19.606Z,3.03
2022-10-29T20:33:54.608Z,3.25
2022-10-29T20:36:49.947Z,2.33
2022-10-29T20:39:30.842Z,2.83
2022-10-29T20:42:03.730Z,2.47
2022-10-29T20:44:30.855Z,2.97
2022-10-29T20:46:57.964Z,2.65
2022-10-29T20:49:25.032Z,2.40
2022-10-29T20:51:52.089Z,2.42
2022-10-29T20:54:19.454Z,2.20
2022-10-29T20:56:48.799Z,2.72
2022-10-29T20:59:23.142Z,2.30
2022-10-29T21:01:52.025Z,2.60
2022-10-29T21:04:19.199Z,2.70
2022-10-29T21:06:46.251Z,2.30
2022-10-29T21:09:23.049Z,2.80
2022-10-29T21:11:50.494Z,2.60
2022-10-29T21:14:17.796Z,2.30
2022-10-29T21:16:44.929Z,2.53
2022-10-29T21:19:11.931Z,2.53
2022-10-29T21:21:40.199Z,3.13
2022-10-29T21:24:07.573Z,2.83
2022-10-29T21:26:34.613Z,3.25
2022-10-29T21:29:04.613Z,2.92
2022-10-29T21:31:31.592Z,3.15
2022-10-29T21:33:58.572Z,2.92
2022-10-29T21:36:25.657Z,2.80
2022-10-29T21:39:06.395Z,2.50
2022-10-29T21:41:33.486Z,3.28
2022-10-29T21:44:00.416Z,2.80
2022-10-29T21:46:27.523Z,2.97
2022-10-29T21:48:56.545Z,2.65
2022-10-29T21:51:23.574Z,2.22
2022-10-29T21:53:50.551Z,2.75
2022-10-29T21:56:17.660Z,3.25
2022-10-29T21:58:44.765Z,2.80
2022-10-29T22:01:16.698Z,3.47
2022-10-29T22:03:45.804Z,2.85
2022-10-29T22:06:22.883Z,3.15
2022-10-29T22:09:10.032Z,3.15
2022-10-29T22:11:37.012Z,2.38
2022-10-29T22:14:04.188Z,3.00
2022-10-29T22:16:32.597Z,3.05
2022-10-29T22:18:59.684Z,3.60
2022-10-29T22:21:26.724Z,2.78
2022-10-29T22:23:55.823Z,3.00
2022-10-29T22:26:28.909Z,3.10
2022-10-29T22:28:58.481Z,3.00
2022-10-29T22:31:25.837Z,3.35
2022-10-29T22:33:53.117Z,3.53
2022-10-29T22:36:22.706Z,3.10
2022-10-29T22:38:54.656Z,3.30
2022-10-29T22:41:22.537Z,2.88
2022-10-29T22:43:49.902Z,3.15
2022-10-29T22:46:18.401Z,3.65
2022-10-29T22:48:45.974Z,3.75
2022-10-29T22:51:33.911Z,3.47
2022-10-29T22:54:01.195Z,3.28
2022-10-29T22:56:30.440Z,3.60
2022-10-29T22:58:57.697Z,3.30
2022-10-29T23:01:33.648Z,3.20
2022-10-29T23:04:03.234Z,3.28
2022-10-29T23:06:30.840Z,3.35
2022-10-29T23:08:58.688Z,3.85
2022-10-29T23:11:30.697Z,3.28
2022-10-29T23:13:59.489Z,3.33
2022-10-29T23:16:29.168Z,3.38
2022-10-29T23:18:58.334Z,3.22
2022-10-29T23:21:25.993Z,2.83
2022-10-29T23:23:53.703Z,4.65
2022-10-29T23:26:24.835Z,3.45
2022-10-29T23:28:55.360Z,3.03
2022-10-29T23:31:25.276Z,2.92
2022-10-29T23:33:56.718Z,3.03
2022-10-29T23:36:25.275Z,3.00
2022-10-29T23:39:02.491Z,3.20
2022-10-29T23:41:31.131Z,2.83
2022-10-29T23:43:58.793Z,3.13
2022-10-29T23:46:25.762Z,3.60
2022-10-29T23:48:52.749Z,3.28
2022-10-29T23:51:19.983Z,2.70
2022-10-29T23:53:50.278Z,3.30
2022-10-29T23:56:20.232Z,3.03
2022-10-29T23:58:47.233Z,3.10
